createdAt,value
2018-06-04T00:03:50.634Z,3.63
2018-06-04T00:09:45.676Z,4.17
2018-06-04T00:15:40.632Z,4.09
2018-06-04T00:21:35.706Z,3.06
2018-06-04T00:27:30.668Z,3.26
2018-06-04T00:33:25.702Z,5.04
2018-06-04T00:39:20.718Z,3.88
2018-06-04T00:45:15.688Z,2.77
2018-06-04T00:51:10.675Z,4.2
2018-06-04T00:57:05.668Z,4.34
2018-06-04T01:03:00.693Z,4.84
2018-06-04T01:08:55.661Z,6.6
2018-06-04T01:14:50.710Z,6.61
2018-06-04T01:20:45.699Z,6.02
2018-06-04T01:26:40.714Z,4.47
2018-06-04T01:32:35.694Z,4.07
2018-06-04T01:38:30.739Z,4.41
2018-06-04T01:44:25.742Z,4.21
2018-06-04T01:50:20.747Z,3.86
2018-06-04T01:56:15.719Z,4.35
2018-06-04T02:02:10.728Z,3.46
2018-06-04T02:08:05.756Z,3.55
2018-06-04T02:14:00.739Z,3.58
2018-06-04T02:19:55.714Z,3.5
2018-06-04T02:25:50.726Z,4.24
2018-06-04T02:31:45.730Z,4.21
2018-06-04T02:37:40.764Z,4.6
2018-06-04T02:43:35.730Z,3.94
2018-06-04T02:49:30.729Z,4.05
2018-06-04T02:55:25.732Z,4.52
2018-06-04T03:01:20.748Z,3.77
2018-06-04T03:07:15.815Z,3.98
2018-06-04T03:13:10.796Z,4.2
2018-06-04T03:19:05.801Z,4.5
2018-06-04T03:25:00.744Z,3.98
2018-06-04T03:30:55.799Z,3.88
2018-06-04T03:36:50.776Z,3.96
2018-06-04T03:42:45.783Z,4.57
2018-06-04T03:48:40.788Z,4.56
2018-06-04T03:54:35.838Z,3.99
2018-06-04T04:00:30.772Z,4.02
2018-06-04T04:06:25.820Z,3.67
2018-06-04T04:12:20.777Z,4.24
2018-06-04T04:18:15.848Z,4.32
2018-06-04T04:24:10.795Z,4.64
2018-06-04T04:30:05.823Z,10.04
2018-06-04T04:36:00.829Z,11.53
2018-06-04T04:41:55.826Z,9.23
2018-06-04T04:47:50.826Z,8.87
2018-06-04T04:53:45.827Z,8.08
2018-06-04T04:59:40.902Z,5.59
2018-06-04T05:05:35.857Z,5.4
2018-06-04T05:11:30.815Z,5.34
2018-06-04T05:17:25.834Z,5.38
2018-06-04T05:23:20.930Z,5.5
2018-06-04T05:29:15.817Z,6.07
2018-06-04T05:35:10.854Z,5.23
2018-06-04T05:41:05.925Z,5.29
2018-06-04T05:47:00.847Z,5.75
2018-06-04T05:52:55.895Z,6.03
2018-06-04T05:58:50.855Z,5.7
2018-06-04T06:04:45.859Z,6.1
2018-06-04T06:10:40.893Z,5.81
2018-06-04T06:16:35.866Z,6.03
2018-06-04T06:22:30.851Z,5.23
2018-06-04T06:28:25.896Z,5.9
2018-06-04T06:34:20.882Z,5.75
2018-06-04T06:40:15.920Z,4.95
2018-06-04T06:46:10.931Z,5.88
2018-06-04T06:52:05.894Z,5.43
2018-06-04T06:58:00.902Z,5.42
2018-06-04T07:03:55.915Z,4.56
2018-06-04T07:09:50.904Z,4.39
2018-06-04T07:15:45.910Z,4.12
2018-06-04T07:21:40.955Z,3.96
2018-06-04T07:27:35.938Z,3.85
2018-06-04T07:33:30.936Z,4.85
2018-06-04T07:39:25.909Z,4.37
2018-06-04T07:45:20.916Z,4.52
2018-06-04T07:51:15.925Z,8.14
2018-06-04T07:57:10.998Z,5.43
2018-06-04T08:03:05.952Z,5.43
2018-06-04T08:09:00.912Z,4.73
2018-06-04T08:14:55.988Z,9.21
2018-06-04T08:20:50.964Z,4.2
2018-06-04T08:26:46.102Z,5.3
2018-06-04T08:32:40.986Z,4.74
2018-06-04T08:38:36.138Z,3.83
2018-06-04T08:44:30.938Z,3.91
2018-06-04T08:50:25.973Z,4.57
2018-06-04T08:56:20.976Z,5.36
2018-06-04T09:02:16.711Z,4.92
2018-06-04T09:08:10.991Z,5.17
2018-06-04T09:14:06.720Z,4.53
2018-06-04T09:20:00.998Z,4.65
2018-06-04T09:25:56.070Z,4.43
2018-06-04T09:31:51.006Z,4.6
2018-06-04T09:37:46.003Z,4.98
2018-06-04T09:43:41.008Z,4.29
2018-06-04T09:49:36.009Z,4.3
2018-06-04T09:55:31.019Z,4.3
2018-06-04T10:01:25.988Z,3.94
2018-06-04T10:07:21.897Z,4.03
2018-06-04T10:13:16.508Z,4.83
2018-06-04T10:19:11.048Z,4.75
2018-06-04T10:25:06.610Z,4.65
2018-06-04T10:31:01.018Z,4.52
2018-06-04T10:36:56.077Z,4.08
2018-06-04T10:42:51.041Z,4.17
2018-06-04T10:48:46.113Z,4.36
2018-06-04T10:54:41.060Z,4.27
2018-06-04T11:00:36.043Z,4.86
2018-06-04T11:06:31.036Z,3.05
2018-06-04T11:12:26.011Z,4.29
2018-06-04T11:18:21.026Z,3.43
2018-06-04T11:24:16.043Z,4.13
2018-06-04T11:30:11.101Z,4.5
2018-06-04T11:36:06.087Z,5.17
2018-06-04T11:42:01.100Z,4.13
2018-06-04T11:47:56.084Z,4.57
2018-06-04T11:53:51.168Z,4.91
2018-06-04T11:59:46.103Z,5.75
2018-06-04T12:05:41.088Z,4.79
2018-06-04T12:11:36.147Z,4.72
2018-06-04T12:17:31.143Z,5.31
2018-06-04T12:23:26.122Z,4.02
2018-06-04T12:29:21.085Z,4.81
2018-06-04T12:35:16.123Z,5.03
2018-06-04T12:41:11.089Z,4.93
2018-06-04T12:47:06.065Z,5.41
2018-06-04T12:53:01.098Z,4.11
2018-06-04T12:58:56.113Z,5.73
2018-06-04T13:04:51.279Z,5.27
2018-06-04T13:10:46.086Z,5.06
2018-06-04T13:16:41.104Z,4.35
2018-06-04T13:22:36.182Z,9.76
2018-06-04T13:28:31.121Z,6.67
2018-06-04T13:34:26.323Z,4.93
2018-06-04T13:40:21.527Z,4.9
2018-06-04T13:46:16.141Z,3.47
2018-06-04T13:52:11.104Z,2.87
2018-06-04T13:58:06.141Z,3.33
2018-06-04T14:04:01.145Z,3.67
2018-06-04T14:09:56.225Z,3.77
2018-06-04T14:15:51.116Z,3.87
2018-06-04T14:21:46.153Z,4.08
2018-06-04T14:27:41.456Z,4.44
2018-06-04T14:33:36.305Z,5.66
2018-06-04T14:39:31.126Z,4.94
2018-06-04T14:45:26.245Z,6.26
2018-06-04T14:51:21.403Z,6.24
2018-06-04T14:57:16.460Z,7.11
2018-06-04T15:03:11.471Z,4.97
2018-06-04T15:09:06.387Z,5.79
2018-06-04T15:15:01.208Z,5.92
2018-06-04T15:20:56.249Z,6.64
2018-06-04T15:26:51.161Z,6.36
2018-06-04T15:32:46.173Z,6.5
2018-06-04T15:38:41.178Z,6.94
2018-06-04T15:44:36.193Z,6.68
2018-06-04T15:50:31.564Z,7.25
2018-06-04T15:56:26.218Z,6.77
2018-06-04T16:02:21.216Z,8.4
2018-06-04T16:08:16.234Z,12.23
2018-06-04T16:14:11.212Z,8.79
2018-06-04T16:20:06.220Z,7.43
2018-06-04T16:26:01.205Z,6.2
2018-06-04T16:31:56.237Z,6.37
2018-06-04T16:37:51.225Z,6.36
2018-06-04T16:43:46.257Z,6.52
2018-06-04T16:49:41.282Z,20.17
2018-06-04T16:55:36.248Z,22.73
2018-06-04T17:01:31.250Z,6
2018-06-04T17:07:26.254Z,6.47
2018-06-04T17:13:21.280Z,5.91
2018-06-04T17:19:16.444Z,4.4
2018-06-04T17:25:11.233Z,3.4
2018-06-04T17:31:06.268Z,3.33
2018-06-04T17:37:01.367Z,3.61
2018-06-04T17:42:56.254Z,2.97
2018-06-04T17:48:51.234Z,3.2
2018-06-04T17:54:46.323Z,3.65
2018-06-04T18:00:41.285Z,4.23
2018-06-04T18:06:36.483Z,2.84
2018-06-04T18:12:31.323Z,2.41
2018-06-04T18:18:26.348Z,2.57
2018-06-04T18:24:21.282Z,2.17
2018-06-04T18:30:16.308Z,2.42
2018-06-04T18:36:11.305Z,2.48
2018-06-04T18:42:06.288Z,1.77
2018-06-04T18:48:01.321Z,1.75
2018-06-04T18:53:56.311Z,1.93
2018-06-04T18:59:51.334Z,1.45
2018-06-04T19:05:47.050Z,1.62
2018-06-04T19:11:41.679Z,1.75
2018-06-04T19:17:36.310Z,1.88
2018-06-04T19:23:31.430Z,1.82
2018-06-04T19:29:26.425Z,1.92
2018-06-04T19:35:21.389Z,1.98
2018-06-04T19:41:17.046Z,1.78
2018-06-04T19:47:11.396Z,1.61
2018-06-04T19:53:06.404Z,1.85
2018-06-04T19:59:01.387Z,1.78
2018-06-04T20:04:56.629Z,1.72
2018-06-04T20:10:51.349Z,1.55
2018-06-04T20:16:46.379Z,1.72
2018-06-04T20:22:41.783Z,1.61
2018-06-04T20:28:36.372Z,2.17
2018-06-04T20:34:31.829Z,2.06
2018-06-04T20:40:26.360Z,1.98
2018-06-04T20:46:21.841Z,2.04
2018-06-04T20:52:16.673Z,2.08
2018-06-04T20:58:11.590Z,1.86
2018-06-04T21:04:06.592Z,1.65
2018-06-04T21:10:01.416Z,2.11
2018-06-04T21:15:56.399Z,1.7
2018-06-04T21:21:51.411Z,1.86
2018-06-04T21:27:46.439Z,2.3
2018-06-04T21:33:41.449Z,2.17
2018-06-04T21:39:36.450Z,1.99
2018-06-04T21:45:31.417Z,2.01
2018-06-04T21:51:26.397Z,1.6
2018-06-04T21:57:21.433Z,1.75
2018-06-04T22:03:16.422Z,1.87
2018-06-04T22:09:11.440Z,2.01
2018-06-04T22:15:06.520Z,2.29
2018-06-04T22:21:01.448Z,1.99
2018-06-04T22:26:56.401Z,1.85
2018-06-04T22:32:52.178Z,2.15
2018-06-04T22:44:41.425Z,2.07
2018-06-04T22:44:41.453Z,1.83
2018-06-04T22:50:36.420Z,2.07
2018-06-04T22:56:31.466Z,1.93
2018-06-04T23:02:26.432Z,2.18
2018-06-04T23:08:21.497Z,2.03
2018-06-04T23:14:16.491Z,1.84
2018-06-04T23:20:11.453Z,2.48
2018-06-04T23:26:06.480Z,1.97
2018-06-04T23:32:01.484Z,2.08
2018-06-04T23:37:56.502Z,1.9
2018-06-04T23:43:51.541Z,1.93
2018-06-04T23:49:46.479Z,1.99
2018-06-04T23:55:41.483Z,1.85
